Time;durP1;ratioP1;P1;durP2;ratioP2;P2;SDS_P1;SDS_P2;PMS_P1;PMS_P2;Temp;Humidity;BMP_temperature;BMP_pressure;BME280_temperature;BME280_humidity;BME280_pressure;Samples;Min_cycle;Max_cycle;Signal;HPM_P1;HPM_P2
2022/03/23 00:00:21;;;;;;;;;;;9.20;51.20;;;;;;2350683;57;20070;-75
2022/03/23 00:02:48;;;;;;;;;;;9.20;51.30;;;;;;2350836;57;20134;-75
2022/03/23 00:05:17;;;;;;;;;;;9.20;51.30;;;;;;2350674;57;20157;-76
2022/03/23 00:07:44;;;;;;;;;;;9.20;51.30;;;;;;2351178;57;20121;-76
2022/03/23 00:10:10;;;;;;;;;;;9.10;51.50;;;;;;2350045;57;20272;-75
2022/03/23 00:12:37;;;;;;;;;;;9.10;51.60;;;;;;2350708;57;20190;-75
2022/03/23 00:15:04;;;;;;;;;;;9.10;51.70;;;;;;2350826;57;20063;-75
2022/03/23 00:17:31;;;;;;;;;;;9.00;51.60;;;;;;2350713;57;20138;-75
2022/03/23 00:19:58;;;;;;;;;;;9.00;51.50;;;;;;2598467;53;20074;-76
2022/03/23 00:22:27;;;;;;;;;;;9.00;51.60;;;;;;2598119;52;20399;-75
2022/03/23 00:24:56;;;;;;;;;;;9.00;51.70;;;;;;2350890;57;20078;-75
2022/03/23 00:27:22;;;;;;;;;;;8.90;51.80;;;;;;2351216;57;20182;-75
2022/03/23 00:29:49;;;;;;;;;;;8.90;51.80;;;;;;2350323;57;20137;-76
2022/03/23 00:32:16;;;;;;;;;;;8.80;52.10;;;;;;2350331;57;20089;-75
2022/03/23 00:34:42;;;;;;;;;;;8.80;52.20;;;;;;2349863;57;20106;-75
2022/03/23 00:37:09;;;;;;;;;;;8.80;52.30;;;;;;2350011;57;20309;-75
2022/03/23 00:39:36;;;;;;;;;;;8.70;52.30;;;;;;2595782;53;20093;-75
2022/03/23 00:42:02;;;;;;;;;;;8.70;52.30;;;;;;2349718;57;20078;-76
2022/03/23 00:44:29;;;;;;;;;;;8.70;52.20;;;;;;2597200;53;20126;-75
2022/03/23 00:46:55;;;;;;;;;;;8.70;52.30;;;;;;2349505;57;20087;-75
2022/03/23 00:49:22;;;;;;;;;;;8.70;52.50;;;;;;2597036;53;20361;-75
2022/03/23 00:51:53;;;;;;;;;;;8.60;52.60;;;;;;2349852;57;20098;-75
2022/03/23 00:54:19;;;;;;;;;;;8.60;52.80;;;;;;2349950;57;20082;-75
2022/03/23 00:56:46;;;;;;;;;;;8.60;53.00;;;;;;2349984;57;20136;-75
2022/03/23 00:59:13;;;;;;;;;;;8.60;53.50;;;;;;2349528;57;20114;-75
2022/03/23 01:01:40;;;;;;;;;;;8.50;52.80;;;;;;2349581;57;20134;-75
2022/03/23 01:04:07;;;;;;;;;;;8.50;52.80;;;;;;2349899;57;20078;-75
2022/03/23 01:06:33;;;;;;;;;;;8.50;53.00;;;;;;2349629;57;20130;-76
2022/03/23 01:09:00;;;;;;;;;;;8.50;53.10;;;;;;2349908;57;20201;-75
2022/03/23 01:11:26;;;;;;;;;;;8.40;53.10;;;;;;2349927;57;20097;-75
2022/03/23 01:13:53;;;;;;;;;;;8.40;53.00;;;;;;2349643;57;20253;-75
2022/03/23 01:16:19;;;;;;;;;;;8.40;53.10;;;;;;2597591;53;20058;-75
2022/03/23 01:18:46;;;;;;;;;;;8.30;53.20;;;;;;2349173;57;20114;-75
2022/03/23 01:21:13;;;;;;;;;;;8.30;53.20;;;;;;2349381;57;20114;-75
2022/03/23 01:23:40;;;;;;;;;;;8.30;53.50;;;;;;2350168;57;20066;-76
2022/03/23 01:26:07;;;;;;;;;;;8.20;53.80;;;;;;2349659;57;20113;-75
2022/03/23 01:28:34;;;;;;;;;;;8.20;53.80;;;;;;2349692;57;20289;-76
2022/03/23 01:31:00;;;;;;;;;;;8.20;53.70;;;;;;2349005;57;20166;-75
2022/03/23 01:33:26;;;;;;;;;;;8.20;53.70;;;;;;2349932;57;20149;-75
2022/03/23 01:35:53;;;;;;;;;;;8.20;53.80;;;;;;2597472;53;20051;-75
2022/03/23 01:38:20;;;;;;;;;;;8.10;53.70;;;;;;2349220;57;20142;-75
2022/03/23 01:40:46;;;;;;;;;;;8.10;53.80;;;;;;2349416;57;20082;-75
2022/03/23 01:43:13;;;;;;;;;;;8.10;53.90;;;;;;2349930;57;20082;-75
2022/03/23 01:45:39;;;;;;;;;;;8.10;54.00;;;;;;2349372;57;20069;-75
2022/03/23 01:48:06;;;;;;;;;;;8.00;53.90;;;;;;2350084;57;20062;-76
2022/03/23 01:50:32;;;;;;;;;;;8.00;54.00;;;;;;2348785;57;20120;-76
2022/03/23 01:52:59;;;;;;;;;;;8.00;54.10;;;;;;2349936;56;20102;-75
2022/03/23 01:55:25;;;;;;;;;;;8.00;54.20;;;;;;2348503;57;20097;-75
2022/03/23 01:57:52;;;;;;;;;;;7.90;54.20;;;;;;2349792;57;20054;-77
2022/03/23 02:00:19;;;;;;;;;;;7.90;54.40;;;;;;2349653;57;20281;-78
2022/03/23 02:02:46;;;;;;;;;;;7.90;54.40;;;;;;2349894;57;20070;-77
2022/03/23 02:05:14;;;;;;;;;;;7.90;54.50;;;;;;2349708;57;20301;-77
2022/03/23 02:07:40;;;;;;;;;;;7.80;54.40;;;;;;2349731;57;20079;-77
2022/03/23 02:10:07;;;;;;;;;;;7.80;54.50;;;;;;2349071;57;20066;-77
2022/03/23 02:12:34;;;;;;;;;;;7.80;54.50;;;;;;2348611;57;20142;-77
2022/03/23 02:15:10;;;;;;;;;;;7.80;54.50;;;;;;2349446;57;20069;-78
2022/03/23 02:17:36;;;;;;;;;;;7.80;54.70;;;;;;2349987;57;20078;-77
2022/03/23 02:20:03;;;;;;;;;;;7.70;54.60;;;;;;2349478;57;20074;-77
2022/03/23 02:22:30;;;;;;;;;;;7.70;54.70;;;;;;2596354;52;20067;-76
2022/03/23 02:24:57;;;;;;;;;;;7.70;54.80;;;;;;2349876;57;20122;-76
2022/03/23 02:27:25;;;;;;;;;;;7.70;54.70;;;;;;2350030;57;20086;-76
2022/03/23 02:29:52;;;;;;;;;;;7.60;54.80;;;;;;2347910;57;20145;-76
2022/03/23 02:32:19;;;;;;;;;;;7.60;54.90;;;;;;2349250;57;20085;-76
2022/03/23 02:34:45;;;;;;;;;;;7.60;54.90;;;;;;2349076;57;20082;-76
2022/03/23 02:37:12;;;;;;;;;;;7.60;55.20;;;;;;2349194;57;20122;-76
2022/03/23 02:39:38;;;;;;;;;;;7.60;55.30;;;;;;2595927;53;20071;-76
2022/03/23 02:42:05;;;;;;;;;;;7.50;55.30;;;;;;2349417;57;20309;-76
2022/03/23 02:44:32;;;;;;;;;;;7.50;55.30;;;;;;2349551;57;20074;-76
2022/03/23 02:46:58;;;;;;;;;;;7.50;55.30;;;;;;2349546;57;20153;-75
2022/03/23 02:49:25;;;;;;;;;;;7.50;55.50;;;;;;2597026;53;20289;-76
2022/03/23 02:51:52;;;;;;;;;;;7.40;55.40;;;;;;2349849;57;20078;-75
2022/03/23 03:02:43;;;;;;;;;;;7.40;55.60;;;;;;2349688;57;20078;-76
2022/03/23 03:05:10;;;;;;;;;;;7.30;55.50;;;;;;2596822;53;20074;-76
2022/03/23 03:10:23;;;;;;;;;;;7.30;55.50;;;;;;2349599;57;20082;-76
2022/03/23 03:12:50;;;;;;;;;;;7.30;55.60;;;;;;2348836;57;20153;-76
2022/03/23 03:15:18;;;;;;;;;;;7.30;55.70;;;;;;2349888;57;20071;-76
2022/03/23 03:17:46;;;;;;;;;;;7.20;55.80;;;;;;2349586;57;20082;-76
2022/03/23 03:20:14;;;;;;;;;;;7.20;55.90;;;;;;2596823;53;20142;-76
2022/03/23 03:22:42;;;;;;;;;;;7.20;56.00;;;;;;2349541;57;20094;-75
2022/03/23 03:25:11;;;;;;;;;;;7.20;56.00;;;;;;2349388;57;20090;-76
2022/03/23 03:27:40;;;;;;;;;;;7.10;56.00;;;;;;2349572;57;20070;-76
2022/03/23 03:30:07;;;;;;;;;;;7.10;55.80;;;;;;2348833;57;20050;-77
2022/03/23 03:32:34;;;;;;;;;;;7.10;56.00;;;;;;2597160;52;20116;-76
2022/03/23 03:35:01;;;;;;;;;;;7.10;56.10;;;;;;2350336;57;20074;-76
2022/03/23 03:37:27;;;;;;;;;;;7.00;56.40;;;;;;2596961;52;20122;-76
2022/03/23 03:39:54;;;;;;;;;;;7.00;56.50;;;;;;2349662;57;20174;-76
2022/03/23 03:42:20;;;;;;;;;;;7.00;56.60;;;;;;2597445;52;20310;-75
2022/03/23 03:44:48;;;;;;;;;;;7.00;56.60;;;;;;2349641;57;20071;-76
2022/03/23 03:47:14;;;;;;;;;;;7.00;56.60;;;;;;2348296;57;20141;-76
2022/03/23 03:49:41;;;;;;;;;;;7.00;56.50;;;;;;2349466;57;20110;-76
2022/03/23 03:52:08;;;;;;;;;;;7.00;56.40;;;;;;2597558;52;20111;-76
2022/03/23 03:54:34;;;;;;;;;;;7.00;56.30;;;;;;2349543;57;20325;-77
2022/03/23 03:57:00;;;;;;;;;;;6.90;56.50;;;;;;2597378;52;20078;-76
2022/03/23 03:59:28;;;;;;;;;;;6.90;56.50;;;;;;2349266;57;20080;-76
2022/03/23 04:01:55;;;;;;;;;;;6.90;56.60;;;;;;2349576;57;20153;-76
2022/03/23 04:04:21;;;;;;;;;;;6.90;56.60;;;;;;2594722;53;20328;-76
2022/03/23 04:06:48;;;;;;;;;;;6.80;56.50;;;;;;2349836;57;20106;-75
2022/03/23 04:09:14;;;;;;;;;;;6.80;56.60;;;;;;2597349;53;20070;-76
2022/03/23 04:11:41;;;;;;;;;;;6.80;56.60;;;;;;2349705;57;20202;-75
2022/03/23 04:14:07;;;;;;;;;;;6.80;57.30;;;;;;2350021;57;20071;-76
2022/03/23 04:16:34;;;;;;;;;;;6.70;56.90;;;;;;2350122;57;20070;-76
2022/03/23 04:19:00;;;;;;;;;;;6.70;57.20;;;;;;2349611;57;20086;-76
2022/03/23 04:21:27;;;;;;;;;;;6.70;57.20;;;;;;2348712;57;20071;-75
2022/03/23 04:23:54;;;;;;;;;;;6.70;57.30;;;;;;2349792;57;20062;-75
2022/03/23 04:26:20;;;;;;;;;;;6.70;57.10;;;;;;2349712;57;20086;-76
2022/03/23 04:28:47;;;;;;;;;;;6.60;57.20;;;;;;2596411;53;20354;-76
2022/03/23 04:31:13;;;;;;;;;;;6.60;57.20;;;;;;2597484;52;20066;-75
2022/03/23 04:33:40;;;;;;;;;;;6.60;57.20;;;;;;2349873;57;20075;-76
2022/03/23 04:36:06;;;;;;;;;;;6.60;57.20;;;;;;2349808;57;20051;-76
2022/03/23 04:38:33;;;;;;;;;;;6.60;57.10;;;;;;2349522;57;20086;-75
2022/03/23 04:40:59;;;;;;;;;;;6.60;57.10;;;;;;2349359;57;20337;-75
2022/03/23 04:43:26;;;;;;;;;;;6.60;57.00;;;;;;2350215;57;20156;-75
2022/03/23 04:45:52;;;;;;;;;;;6.60;57.10;;;;;;2349872;57;20066;-74
2022/03/23 04:48:19;;;;;;;;;;;6.50;57.20;;;;;;2350025;57;20110;-75
2022/03/23 04:50:46;;;;;;;;;;;6.50;57.30;;;;;;2349514;57;20103;-74
2022/03/23 04:53:13;;;;;;;;;;;6.50;57.30;;;;;;2349990;57;20051;-75
2022/03/23 04:55:40;;;;;;;;;;;6.40;57.30;;;;;;2349515;57;20079;-75
2022/03/23 04:58:06;;;;;;;;;;;6.40;57.30;;;;;;2349542;57;20078;-75
2022/03/23 05:00:34;;;;;;;;;;;6.40;57.30;;;;;;2349349;57;20066;-75
2022/03/23 05:03:01;;;;;;;;;;;6.40;57.30;;;;;;2349970;57;20134;-75
2022/03/23 05:05:27;;;;;;;;;;;6.40;57.30;;;;;;2349508;57;20055;-75
2022/03/23 05:07:54;;;;;;;;;;;6.40;57.20;;;;;;2349905;57;20058;-75
2022/03/23 05:10:20;;;;;;;;;;;6.40;57.40;;;;;;2349208;57;20148;-75
2022/03/23 05:12:47;;;;;;;;;;;6.40;57.50;;;;;;2348266;57;20090;-75
2022/03/23 05:15:15;;;;;;;;;;;6.30;57.60;;;;;;2349069;57;20118;-75
2022/03/23 05:20:18;;;;;;;;;;;6.30;57.60;;;;;;2358109;57;20081;-74
2022/03/23 05:22:44;;;;;;;;;;;6.30;57.60;;;;;;2399827;56;20307;-75
2022/03/23 05:25:13;;;;;;;;;;;6.30;57.60;;;;;;2406560;56;20084;-76
2022/03/23 05:27:40;;;;;;;;;;;6.30;57.80;;;;;;2406423;56;20060;-76
2022/03/23 05:30:08;;;;;;;;;;;6.20;58.50;;;;;;2406374;56;20076;-76
2022/03/23 05:32:35;;;;;;;;;;;6.20;57.90;;;;;;2406699;56;20116;-76
2022/03/23 05:35:02;;;;;;;;;;;6.20;57.90;;;;;;2407091;56;20123;-76
2022/03/23 05:37:28;;;;;;;;;;;6.20;57.90;;;;;;2406943;56;20077;-76
2022/03/23 05:39:55;;;;;;;;;;;6.20;57.90;;;;;;2405126;56;20069;-76
2022/03/23 05:42:22;;;;;;;;;;;6.20;57.90;;;;;;2666722;52;20107;-76
2022/03/23 05:44:48;;;;;;;;;;;6.20;58.10;;;;;;2406459;56;20096;-76
2022/03/23 05:47:15;;;;;;;;;;;6.20;58.30;;;;;;2407213;56;20395;-77
2022/03/23 05:49:41;;;;;;;;;;;6.20;58.30;;;;;;2406504;56;20133;-77
2022/03/23 05:52:08;;;;;;;;;;;6.20;58.40;;;;;;2667395;52;20081;-77
2022/03/23 05:54:34;;;;;;;;;;;6.20;58.60;;;;;;2406797;56;20131;-76
2022/03/23 05:57:02;;;;;;;;;;;6.20;58.90;;;;;;2406520;56;20146;-75
2022/03/23 05:59:29;;;;;;;;;;;6.10;59.10;;;;;;2406381;56;20116;-74
2022/03/23 06:01:55;;;;;;;;;;;6.10;59.90;;;;;;2406003;56;20117;-75
2022/03/23 06:04:22;;;;;;;;;;;6.20;59.50;;;;;;2406853;56;20426;-75
2022/03/23 06:06:49;;;;;;;;;;;6.20;59.70;;;;;;2406846;56;20089;-75
2022/03/23 06:09:15;;;;;;;;;;;6.20;59.80;;;;;;2406498;56;20403;-75
2022/03/23 06:11:42;;;;;;;;;;;6.20;59.80;;;;;;2406937;56;20053;-75
2022/03/23 06:14:08;;;;;;;;;;;6.30;59.80;;;;;;2406849;56;20060;-75
2022/03/23 06:16:35;;;;;;;;;;;6.30;59.80;;;;;;2406962;56;20076;-76
2022/03/23 06:19:01;;;;;;;;;;;6.30;59.70;;;;;;2406258;56;20060;-76
2022/03/23 06:21:28;;;;;;;;;;;6.30;59.80;;;;;;2406897;56;20084;-74
2022/03/23 06:23:54;;;;;;;;;;;6.40;59.90;;;;;;2407195;56;20284;-75
2022/03/23 06:26:21;;;;;;;;;;;6.40;59.80;;;;;;2406510;56;20128;-74
2022/03/23 06:28:47;;;;;;;;;;;6.50;59.80;;;;;;2406635;56;20124;-76
2022/03/23 06:31:14;;;;;;;;;;;6.50;59.70;;;;;;2666266;52;20073;-76
2022/03/23 06:33:40;;;;;;;;;;;6.60;59.80;;;;;;2405588;56;20092;-75
2022/03/23 06:36:07;;;;;;;;;;;6.60;59.80;;;;;;2666216;52;20060;-75
2022/03/23 06:38:34;;;;;;;;;;;6.60;59.60;;;;;;2405420;56;20064;-75
2022/03/23 06:41:00;;;;;;;;;;;6.60;59.60;;;;;;2404485;56;20140;-75
2022/03/23 06:43:27;;;;;;;;;;;6.70;59.60;;;;;;2665892;52;20319;-75
2022/03/23 06:45:53;;;;;;;;;;;6.70;59.60;;;;;;2405846;56;20064;-75
2022/03/23 06:48:20;;;;;;;;;;;6.80;59.80;;;;;;2405660;56;20072;-75
2022/03/23 06:50:46;;;;;;;;;;;6.80;59.60;;;;;;2405060;56;20366;-75
2022/03/23 06:53:13;;;;;;;;;;;6.80;59.40;;;;;;2405766;56;20327;-76
2022/03/23 06:55:39;;;;;;;;;;;6.90;59.50;;;;;;2405990;56;20068;-75
2022/03/23 06:58:06;;;;;;;;;;;7.00;59.60;;;;;;2405897;56;20135;-75
2022/03/23 07:00:32;;;;;;;;;;;7.00;59.60;;;;;;2405657;56;20076;-75
2022/03/23 07:02:59;;;;;;;;;;;7.00;59.70;;;;;;2405561;56;20120;-75
2022/03/23 07:05:25;;;;;;;;;;;7.10;59.90;;;;;;2405957;56;20298;-74
2022/03/23 07:10:37;;;;;;;;;;;7.20;60.20;;;;;;2405584;56;20129;-75
2022/03/23 07:13:04;;;;;;;;;;;7.20;60.40;;;;;;2665903;52;20065;-75
2022/03/23 07:15:30;;;;;;;;;;;7.30;60.70;;;;;;2405797;56;20260;-76
2022/03/23 07:17:56;;;;;;;;;;;7.30;60.80;;;;;;2405874;56;20125;-76
2022/03/23 07:20:24;;;;;;;;;;;7.40;60.80;;;;;;2405325;56;20307;-76
2022/03/23 07:22:50;;;;;;;;;;;7.40;60.90;;;;;;2405506;56;20306;-75
2022/03/23 07:25:17;;;;;;;;;;;7.50;60.50;;;;;;2405521;56;20088;-76
2022/03/23 07:27:43;;;;;;;;;;;7.60;61.00;;;;;;2405692;56;20363;-76
2022/03/23 07:30:11;;;;;;;;;;;7.70;61.10;;;;;;2665956;52;20064;-75
2022/03/23 07:32:38;;;;;;;;;;;7.70;61.20;;;;;;2664230;52;20076;-76
2022/03/23 07:35:06;;;;;;;;;;;7.80;61.20;;;;;;2405853;56;20419;-75
2022/03/23 07:37:33;;;;;;;;;;;7.90;61.20;;;;;;2405977;56;20061;-75
2022/03/23 07:39:59;;;;;;;;;;;8.00;61.30;;;;;;2405005;56;20128;-76
2022/03/23 07:42:26;;;;;;;;;;;8.10;61.80;;;;;;2405459;56;20116;-76
2022/03/23 07:47:28;;;;;;;;;;;8.30;61.50;;;;;;2332577;57;20136;-73
2022/03/23 07:49:54;;;;;;;;;;;8.40;61.30;;;;;;2350795;57;20317;-75
2022/03/23 07:52:21;;;;;;;;;;;8.50;61.10;;;;;;2350758;57;20147;-76
2022/03/23 07:54:47;;;;;;;;;;;8.60;60.90;;;;;;2350922;57;20314;-76
2022/03/23 07:57:14;;;;;;;;;;;8.80;61.10;;;;;;2350553;57;20050;-76
2022/03/23 07:59:41;;;;;;;;;;;8.90;61.10;;;;;;2350059;57;20138;-76
2022/03/23 08:02:08;;;;;;;;;;;9.00;61.00;;;;;;2349672;57;20166;-74
2022/03/23 08:04:34;;;;;;;;;;;9.10;61.50;;;;;;2348909;57;20070;-73
2022/03/23 08:07:02;;;;;;;;;;;9.20;60.50;;;;;;2350600;57;20357;-74
2022/03/23 08:09:29;;;;;;;;;;;9.30;60.20;;;;;;2350038;57;20350;-75
2022/03/23 08:11:56;;;;;;;;;;;9.40;60.00;;;;;;2598521;53;20091;-74
2022/03/23 08:14:22;;;;;;;;;;;9.50;59.80;;;;;;2350424;57;20094;-74
2022/03/23 08:16:49;;;;;;;;;;;9.60;59.50;;;;;;2350479;57;20275;-74
2022/03/23 08:19:15;;;;;;;;;;;9.70;59.20;;;;;;2350123;57;20062;-74
2022/03/23 08:21:42;;;;;;;;;;;9.80;59.10;;;;;;2348655;57;20082;-74
2022/03/23 08:24:09;;;;;;;;;;;9.90;58.70;;;;;;2350285;57;20122;-75
2022/03/23 08:26:35;;;;;;;;;;;10.00;58.80;;;;;;2349101;57;20337;-75
2022/03/23 08:29:03;;;;;;;;;;;10.10;58.20;;;;;;2595726;52;20066;-74
2022/03/23 08:31:29;;;;;;;;;;;10.10;57.90;;;;;;2349970;57;20078;-75
2022/03/23 08:33:56;;;;;;;;;;;10.20;58.30;;;;;;2350020;57;20062;-74
2022/03/23 08:36:22;;;;;;;;;;;10.30;57.00;;;;;;2385106;54;20048;-74
2022/03/23 08:38:49;;;;;;;;;;;10.50;57.00;;;;;;2519002;54;20133;-75
2022/03/23 08:41:16;;;;;;;;;;;10.50;56.50;;;;;;2286014;59;20168;-74
2022/03/23 08:43:42;;;;;;;;;;;10.70;55.80;;;;;;2285908;59;20084;-75
2022/03/23 08:46:12;;;;;;;;;;;10.70;56.40;;;;;;2519558;55;20061;-75
2022/03/23 08:48:38;;;;;;;;;;;10.80;55.60;;;;;;2517982;54;20112;-74
2022/03/23 08:51:05;;;;;;;;;;;10.90;55.30;;;;;;2285319;59;20096;-74
2022/03/23 08:53:32;;;;;;;;;;;11.00;54.90;;;;;;2285858;58;20094;-74
2022/03/23 08:55:59;;;;;;;;;;;11.10;54.30;;;;;;2286026;59;20464;-75
2022/03/23 08:58:26;;;;;;;;;;;11.20;53.70;;;;;;2518297;55;20080;-75
2022/03/23 09:00:52;;;;;;;;;;;11.30;53.20;;;;;;2518190;55;20073;-77
2022/03/23 09:03:19;;;;;;;;;;;11.30;52.40;;;;;;2518572;54;20350;-77
2022/03/23 09:05:45;;;;;;;;;;;11.40;51.50;;;;;;2284001;58;20089;-77
2022/03/23 09:08:12;;;;;;;;;;;11.50;51.10;;;;;;2285071;59;20080;-76
2022/03/23 09:10:38;;;;;;;;;;;11.60;50.60;;;;;;2284034;58;20303;-75
2022/03/23 09:13:05;;;;;;;;;;;11.60;49.30;;;;;;2284944;59;20391;-75
2022/03/23 09:15:31;;;;;;;;;;;11.70;49.70;;;;;;2285090;59;20076;-75
2022/03/23 09:17:59;;;;;;;;;;;11.80;49.00;;;;;;2284920;59;20086;-75
2022/03/23 09:20:28;;;;;;;;;;;11.90;48.70;;;;;;2284815;59;20069;-75
2022/03/23 09:22:54;;;;;;;;;;;12.00;49.30;;;;;;2283364;59;20092;-75
2022/03/23 09:25:22;;;;;;;;;;;12.00;49.80;;;;;;2284843;59;20402;-75
2022/03/23 09:27:49;;;;;;;;;;;12.10;49.40;;;;;;2284343;59;20144;-75
2022/03/23 09:30:16;;;;;;;;;;;12.20;48.30;;;;;;2284899;59;20117;-74
2022/03/23 09:32:43;;;;;;;;;;;12.30;47.30;;;;;;2285280;59;20072;-75
2022/03/23 09:35:10;;;;;;;;;;;12.40;47.40;;;;;;2284777;59;20080;-75
2022/03/23 09:37:48;;;;;;;;;;;12.50;47.00;;;;;;2285201;59;20359;-74
2022/03/23 09:40:15;;;;;;;;;;;12.60;46.10;;;;;;2282975;59;20060;-74
2022/03/23 09:42:42;;;;;;;;;;;12.70;45.30;;;;;;2285182;59;20084;-74
2022/03/23 09:45:09;;;;;;;;;;;12.80;44.60;;;;;;2517901;55;20113;-75
2022/03/23 09:47:36;;;;;;;;;;;12.90;44.00;;;;;;2518384;55;20049;-74
2022/03/23 09:50:03;;;;;;;;;;;13.00;44.20;;;;;;2284559;59;20137;-75
2022/03/23 09:52:30;;;;;;;;;;;13.10;43.50;;;;;;2284875;59;20087;-74
2022/03/23 09:54:56;;;;;;;;;;;13.20;42.60;;;;;;2284510;59;20129;-75
2022/03/23 09:57:23;;;;;;;;;;;13.30;42.60;;;;;;2282542;59;20396;-74
2022/03/23 09:59:49;;;;;;;;;;;13.40;42.20;;;;;;2518055;54;20089;-75
2022/03/23 10:02:47;;;;;;;;;;;13.40;42.70;;;;;;2285249;59;20056;-74
2022/03/23 10:05:48;;;;;;;;;;;13.50;43.30;;;;;;2284928;59;20319;-75
2022/03/23 10:08:40;;;;;;;;;;;13.60;42.80;;;;;;2283849;59;20391;-74
2022/03/23 10:11:24;;;;;;;;;;;13.60;42.20;;;;;;2279137;59;20136;-75
2022/03/23 10:14:19;;;;;;;;;;;13.70;41.40;;;;;;2283873;59;20160;-74
2022/03/23 10:17:04;;;;;;;;;;;13.80;41.30;;;;;;2227997;59;20151;-75
2022/03/23 10:19:30;;;;;;;;;;;13.90;40.80;;;;;;2283772;59;20132;-74
2022/03/23 10:24:38;;;;;;;;;;;14.00;40.90;;;;;;2353020;57;20351;-74
2022/03/23 10:27:06;;;;;;;;;;;14.10;41.20;;;;;;2377334;56;20125;-74
2022/03/23 10:29:32;;;;;;;;;;;14.20;40.70;;;;;;2377555;56;20121;-75
2022/03/23 10:32:00;;;;;;;;;;;14.30;39.50;;;;;;2363438;56;20392;-74
2022/03/23 10:34:36;;;;;;;;;;;14.40;39.10;;;;;;2349602;57;20127;-75
2022/03/23 10:37:03;;;;;;;;;;;14.50;39.20;;;;;;2347685;57;20114;-75
2022/03/23 10:39:31;;;;;;;;;;;14.60;39.40;;;;;;2349195;57;20051;-74
2022/03/23 10:41:58;;;;;;;;;;;14.70;39.60;;;;;;2349318;57;20082;-75
2022/03/23 10:44:24;;;;;;;;;;;14.80;39.80;;;;;;2597030;53;20301;-74
2022/03/23 10:46:51;;;;;;;;;;;14.80;39.30;;;;;;2348291;57;20169;-75
2022/03/23 10:49:18;;;;;;;;;;;14.90;38.90;;;;;;2345890;57;20082;-74
2022/03/23 10:51:44;;;;;;;;;;;15.00;39.20;;;;;;2350314;57;20115;-74
2022/03/23 10:54:14;;;;;;;;;;;15.10;39.30;;;;;;2348904;57;20107;-74
2022/03/23 10:56:41;;;;;;;;;;;15.20;39.20;;;;;;2348688;57;20374;-75
2022/03/23 10:59:21;;;;;;;;;;;15.30;38.70;;;;;;2346693;57;20086;-75
2022/03/23 11:02:01;;;;;;;;;;;15.40;38.40;;;;;;2349069;57;20090;-74
2022/03/23 11:04:29;;;;;;;;;;;15.40;38.60;;;;;;2593965;52;20059;-75
2022/03/23 11:06:58;;;;;;;;;;;15.50;38.70;;;;;;2347600;57;20131;-74
2022/03/23 11:17:49;;;;;;;;;;;15.80;38.60;;;;;;2347908;57;20150;-74
2022/03/23 11:20:16;;;;;;;;;;;15.90;38.30;;;;;;2348379;57;20194;-74
2022/03/23 11:22:43;;;;;;;;;;;16.00;38.70;;;;;;2349902;57;20106;-75
2022/03/23 11:25:09;;;;;;;;;;;16.10;38.80;;;;;;2349079;57;20608;-75
2022/03/23 11:27:37;;;;;;;;;;;16.20;38.50;;;;;;2596584;53;20083;-74
2022/03/23 11:30:05;;;;;;;;;;;16.30;38.60;;;;;;2596969;53;20076;-73
2022/03/23 11:32:33;;;;;;;;;;;16.40;38.60;;;;;;2350827;57;20344;-73
2022/03/23 11:35:01;;;;;;;;;;;16.50;38.10;;;;;;2347993;57;20075;-74
2022/03/23 11:37:29;;;;;;;;;;;16.50;38.30;;;;;;2348398;57;20079;-74
2022/03/23 11:39:57;;;;;;;;;;;16.60;38.50;;;;;;2348095;57;20135;-74
2022/03/23 11:42:24;;;;;;;;;;;16.70;38.80;;;;;;2349602;57;20054;-75
2022/03/23 11:44:51;;;;;;;;;;;16.80;38.10;;;;;;2350767;57;20130;-75
2022/03/23 11:47:27;;;;;;;;;;;16.90;38.70;;;;;;2349755;57;20091;-76
2022/03/23 11:49:59;;;;;;;;;;;16.90;38.90;;;;;;2595027;53;20317;-75
2022/03/23 11:52:34;;;;;;;;;;;17.00;37.80;;;;;;2349122;57;20058;-75
2022/03/23 11:58:04;;;;;;;;;;;17.20;38.60;;;;;;2350735;57;20110;-75
2022/03/23 12:00:37;;;;;;;;;;;17.20;38.60;;;;;;2350332;57;20074;-74
2022/03/23 12:03:04;;;;;;;;;;;17.20;38.50;;;;;;2598508;52;20110;-74
2022/03/23 12:05:31;;;;;;;;;;;17.30;38.70;;;;;;2350735;57;20105;-74
2022/03/23 12:07:58;;;;;;;;;;;17.40;38.60;;;;;;2349925;57;20082;-74
2022/03/23 12:10:27;;;;;;;;;;;17.40;39.00;;;;;;2348774;57;20078;-75
2022/03/23 12:12:53;;;;;;;;;;;17.50;38.50;;;;;;2350872;57;20078;-75
2022/03/23 12:15:24;;;;;;;;;;;17.50;38.70;;;;;;2350569;57;20145;-74
2022/03/23 12:17:58;;;;;;;;;;;17.60;38.10;;;;;;2350799;57;20232;-77
2022/03/23 12:20:28;;;;;;;;;;;17.60;38.30;;;;;;2598028;53;20145;-76
2022/03/23 12:22:59;;;;;;;;;;;17.70;38.90;;;;;;2350024;57;20070;-75
2022/03/23 12:28:17;;;;;;;;;;;17.80;38.70;;;;;;2357973;57;20417;-74
2022/03/23 12:30:59;;;;;;;;;;;17.90;38.80;;;;;;2378092;56;20069;-74
2022/03/23 12:33:26;;;;;;;;;;;17.90;38.90;;;;;;2350795;57;20082;-76
2022/03/23 12:35:58;;;;;;;;;;;18.00;39.20;;;;;;2350581;57;20062;-74
2022/03/23 12:38:25;;;;;;;;;;;18.00;39.90;;;;;;2350894;57;20086;-76
2022/03/23 12:40:51;;;;;;;;;;;18.00;39.50;;;;;;2350470;57;20121;-73
2022/03/23 12:43:34;;;;;;;;;;;18.00;39.60;;;;;;2596184;53;20149;-75
2022/03/23 12:46:01;;;;;;;;;;;18.10;39.70;;;;;;2597753;53;20075;-74
2022/03/23 12:59:35;;;;;;;;;;;18.20;39.70;;;;;;2350007;57;20122;-75
2022/03/23 13:02:24;;;;;;;;;;;18.20;39.90;;;;;;2348952;57;20129;-75
2022/03/23 13:04:52;;;;;;;;;;;18.20;40.40;;;;;;2350527;57;20381;-75
2022/03/23 13:07:40;;;;;;;;;;;18.30;39.90;;;;;;2350621;57;20110;-74
2022/03/23 13:10:08;;;;;;;;;;;18.30;39.50;;;;;;2586470;53;20059;-76
2022/03/23 13:12:35;;;;;;;;;;;18.30;40.10;;;;;;2350702;57;20118;-75
2022/03/23 13:15:08;;;;;;;;;;;18.40;39.80;;;;;;2350245;57;20062;-75
2022/03/23 13:17:38;;;;;;;;;;;18.40;39.70;;;;;;2349786;57;20079;-74
2022/03/23 13:20:08;;;;;;;;;;;18.40;39.50;;;;;;2349620;57;20078;-75
2022/03/23 13:22:36;;;;;;;;;;;18.50;39.60;;;;;;2350638;57;20309;-75
2022/03/23 13:25:03;;;;;;;;;;;18.50;39.30;;;;;;2598240;53;20067;-75
2022/03/23 13:27:29;;;;;;;;;;;18.50;39.50;;;;;;2350689;57;20082;-74
2022/03/23 13:29:59;;;;;;;;;;;18.60;39.60;;;;;;2597186;52;20043;-74
2022/03/23 13:32:32;;;;;;;;;;;18.60;39.50;;;;;;2598457;53;20083;-74
2022/03/23 13:34:59;;;;;;;;;;;18.60;39.60;;;;;;2598048;53;20070;-74
2022/03/23 13:37:25;;;;;;;;;;;18.60;39.80;;;;;;2597748;53;20141;-75
2022/03/23 13:39:52;;;;;;;;;;;18.60;40.80;;;;;;2349326;57;20384;-74
2022/03/23 13:45:09;;;;;;;;;;;18.70;40.00;;;;;;2349298;57;20129;-75
2022/03/23 13:47:36;;;;;;;;;;;18.70;40.20;;;;;;2349339;57;20090;-74
2022/03/23 13:50:04;;;;;;;;;;;18.60;40.10;;;;;;2349301;57;20078;-75
2022/03/23 13:52:30;;;;;;;;;;;18.70;40.10;;;;;;2348869;57;20110;-75
2022/03/23 13:54:58;;;;;;;;;;;18.70;39.70;;;;;;2349541;57;20066;-75
2022/03/23 13:57:26;;;;;;;;;;;18.70;40.10;;;;;;2349600;57;20135;-75
2022/03/23 13:59:52;;;;;;;;;;;18.60;39.30;;;;;;2348988;57;20138;-75
2022/03/23 14:02:23;;;;;;;;;;;18.70;39.40;;;;;;2349190;57;20074;-74
2022/03/23 14:04:49;;;;;;;;;;;18.70;39.40;;;;;;2349346;57;20125;-75
2022/03/23 14:07:16;;;;;;;;;;;18.70;39.30;;;;;;2349014;57;20063;-75
2022/03/23 14:09:42;;;;;;;;;;;18.70;39.30;;;;;;2349345;57;20070;-74
2022/03/23 14:12:10;;;;;;;;;;;18.70;39.10;;;;;;2349433;57;20087;-75
2022/03/23 14:14:37;;;;;;;;;;;18.70;39.10;;;;;;2349755;57;20062;-75
2022/03/23 14:17:09;;;;;;;;;;;18.70;38.90;;;;;;2348156;57;20078;-75
2022/03/23 14:19:36;;;;;;;;;;;18.80;38.90;;;;;;2349148;57;20074;-75
2022/03/23 14:22:04;;;;;;;;;;;18.80;38.90;;;;;;2595374;53;20098;-75
2022/03/23 14:24:33;;;;;;;;;;;18.80;39.00;;;;;;2349718;57;20070;-75
2022/03/23 14:27:16;;;;;;;;;;;18.80;39.00;;;;;;2596786;53;20050;-76
2022/03/23 14:30:05;;;;;;;;;;;18.80;39.50;;;;;;2597196;53;20153;-75
2022/03/23 14:32:33;;;;;;;;;;;18.80;38.80;;;;;;2350000;57;20050;-75
2022/03/23 14:34:59;;;;;;;;;;;18.80;38.90;;;;;;2349551;57;20118;-75
2022/03/23 14:37:33;;;;;;;;;;;18.80;38.90;;;;;;2349073;57;20066;-75
2022/03/23 14:40:01;;;;;;;;;;;18.80;38.90;;;;;;2348698;57;20377;-76
2022/03/23 14:42:32;;;;;;;;;;;18.80;39.00;;;;;;2597217;53;20083;-75
2022/03/23 14:44:59;;;;;;;;;;;18.80;38.90;;;;;;2350060;57;20102;-75
2022/03/23 14:47:45;;;;;;;;;;;18.80;38.80;;;;;;2349882;57;20074;-75
2022/03/23 14:50:12;;;;;;;;;;;18.90;38.90;;;;;;2349265;57;20069;-76
2022/03/23 14:52:38;;;;;;;;;;;18.80;38.60;;;;;;2349478;57;20105;-76
2022/03/23 14:55:06;;;;;;;;;;;18.80;38.70;;;;;;2350113;57;20066;-75
2022/03/23 14:57:32;;;;;;;;;;;18.80;38.90;;;;;;2350128;57;20077;-75
2022/03/23 14:59:59;;;;;;;;;;;18.80;38.90;;;;;;2349563;57;20122;-75
2022/03/23 15:02:29;;;;;;;;;;;18.80;38.80;;;;;;2350272;57;20070;-75
2022/03/23 15:04:55;;;;;;;;;;;18.70;38.90;;;;;;2349650;57;20071;-75
2022/03/23 15:15:43;;;;;;;;;;;18.60;39.60;;;;;;2349924;57;20380;-75
2022/03/23 15:18:09;;;;;;;;;;;18.60;39.70;;;;;;2597110;53;20070;-75
2022/03/23 15:20:36;;;;;;;;;;;18.60;39.90;;;;;;2597355;53;20384;-76
2022/03/23 15:23:02;;;;;;;;;;;18.50;39.70;;;;;;2350046;57;20082;-76
2022/03/23 15:25:29;;;;;;;;;;;18.50;39.70;;;;;;2350089;57;20067;-75